Time;durP1;ratioP1;P1;durP2;ratioP2;P2;SDS_P1;SDS_P2;PMS_P1;PMS_P2;Temp;Humidity;BMP_temperature;BMP_pressure;BME280_temperature;BME280_humidity;BME280_pressure;Samples;Min_cycle;Max_cycle;Signal;HPM_P1;HPM_P2
2021/12/09 00:00:30;;;;;;;19.25;6.40;;;;;;;-8.88;94.71;100193.53;5002141;28;20045;-63
2021/12/09 00:02:57;;;;;;;16.25;5.63;;;;;;;-8.91;95.45;100185.69;5031721;28;20505;-65
2021/12/09 00:05:24;;;;;;;20.40;6.63;;;;;;;-8.82;94.47;100202.16;5013814;28;20523;-65
2021/12/09 00:07:52;;;;;;;15.10;5.00;;;;;;;-8.93;95.08;100187.44;4997681;28;20147;-65
2021/12/09 00:10:18;;;;;;;18.88;6.30;;;;;;;-8.89;95.55;100178.69;5012499;28;20057;-64
2021/12/09 00:12:45;;;;;;;17.85;6.35;;;;;;;-9.04;95.29;100154.38;5013968;28;20470;-63
2021/12/09 00:15:13;;;;;;;14.15;4.63;;;;;;;-8.71;95.03;100185.47;5032110;28;20124;-63
2021/12/09 00:17:40;;;;;;;14.07;5.05;;;;;;;-8.76;94.88;100185.53;5032224;28;20053;-64
2021/12/09 00:20:06;;;;;;;22.08;8.52;;;;;;;-9.02;95.26;100157.88;5030997;28;20492;-64
2021/12/09 00:22:32;;;;;;;16.50;5.32;;;;;;;-8.85;94.86;100188.22;5031842;28;20072;-64
2021/12/09 00:24:58;;;;;;;17.80;6.40;;;;;;;-8.98;95.84;100159.56;5013828;28;20458;-64
2021/12/09 00:27:23;;;;;;;19.48;5.43;;;;;;;-8.83;96.33;100189.09;5034075;28;20053;-64
2021/12/09 00:29:49;;;;;;;17.25;6.22;;;;;;;-8.82;95.92;100191.69;5031570;28;20045;-63
2021/12/09 00:32:15;;;;;;;15.68;4.10;;;;;;;-8.87;95.95;100175.16;5017538;28;20106;-63
2021/12/09 00:34:44;;;;;;;18.65;6.88;;;;;;;-8.96;96.26;100151.69;5016406;28;20430;-64
2021/12/09 00:39:49;;;;;;;17.83;5.75;;;;;;;-8.80;96.48;100174.22;5032243;28;20131;-63
2021/12/09 00:42:15;;;;;;;16.48;5.35;;;;;;;-8.80;95.81;100166.34;5013550;28;20065;-62
2021/12/09 00:44:41;;;;;;;14.85;5.57;;;;;;;-8.87;96.34;100176.91;5031127;28;20037;-63
2021/12/09 00:47:07;;;;;;;15.82;5.47;;;;;;;-8.81;96.25;100172.47;5013376;28;20046;-61
2021/12/09 00:49:33;;;;;;;19.88;6.15;;;;;;;-8.82;95.28;100170.72;5026230;28;20037;-62
2021/12/09 00:51:59;;;;;;;19.98;5.90;;;;;;;-8.78;94.88;100167.19;5013232;28;20045;-63
2021/12/09 00:54:25;;;;;;;13.15;4.68;;;;;;;-8.78;95.18;100163.69;5031329;28;20378;-63
2021/12/09 00:56:51;;;;;;;18.45;6.10;;;;;;;-9.04;95.07;100122.97;5024144;28;20048;-63
2021/12/09 00:59:17;;;;;;;19.20;7.00;;;;;;;-8.80;95.19;100174.22;5030931;28;20486;-64
2021/12/09 01:01:43;;;;;;;15.02;5.40;;;;;;;-8.72;95.42;100184.59;5029346;28;20045;-63
2021/12/09 01:04:08;;;;;;;18.60;5.60;;;;;;;-8.70;95.99;100195.94;5030957;28;20599;-63
2021/12/09 01:06:34;;;;;;;14.57;5.40;;;;;;;-8.69;96.18;100186.31;5012161;28;20040;-64
2021/12/09 01:09:02;;;;;;;17.20;5.55;;;;;;;-8.64;96.14;100189.75;5030650;28;20057;-63
2021/12/09 01:11:28;;;;;;;16.77;5.93;;;;;;;-8.73;96.24;100182.88;5030881;28;20136;-63
2021/12/09 01:13:53;;;;;;;16.33;5.50;;;;;;;-8.88;96.94;100165.56;5030825;28;20493;-63
2021/12/09 01:16:19;;;;;;;14.13;4.95;;;;;;;-8.77;97.19;100175.94;5012262;28;20054;-62
2021/12/09 01:18:45;;;;;;;9.23;2.95;;;;;;;-8.80;96.51;100163.72;5030812;28;20457;-62
2021/12/09 01:21:11;;;;;;;16.48;6.00;;;;;;;-8.74;97.34;100199.44;4996257;28;20501;-63
2021/12/09 01:23:37;;;;;;;14.50;5.88;;;;;;;-8.85;98.05;100164.66;5030546;28;20081;-63
2021/12/09 01:26:06;;;;;;;18.58;7.10;;;;;;;-8.84;97.88;100179.50;5020157;28;20041;-64
2021/12/09 01:28:41;;;;;;;14.80;5.63;;;;;;;-8.86;98.06;100168.16;5032414;28;20151;-63
2021/12/09 01:31:07;;;;;;;17.75;5.47;;;;;;;-8.80;97.90;100162.88;5031928;28;20045;-62
2021/12/09 01:33:35;;;;;;;14.02;4.45;;;;;;;-8.60;97.60;100192.31;5032505;28;20380;-62
2021/12/09 01:36:01;;;;;;;15.68;5.70;;;;;;;-8.58;97.42;100174.81;5023919;28;20037;-63
2021/12/09 01:38:30;;;;;;;12.07;4.68;;;;;;;-8.59;97.04;100183.56;5030103;28;20501;-63
2021/12/09 01:40:57;;;;;;;15.98;5.47;;;;;;;-8.62;97.26;100167.88;5012268;28;20045;-63
2021/12/09 01:43:23;;;;;;;13.48;4.47;;;;;;;-8.64;96.92;100180.13;5012140;28;20523;-62
2021/12/09 01:46:04;;;;;;;13.95;5.00;;;;;;;-8.66;96.93;100187.16;4998159;28;20044;-64
2021/12/09 01:48:30;;;;;;;12.55;4.32;;;;;;;-8.58;96.75;100195.78;5050238;28;20086;-62
2021/12/09 01:50:56;;;;;;;15.18;5.18;;;;;;;-8.61;96.59;100195.81;5015338;28;20128;-62
2021/12/09 01:53:22;;;;;;;18.02;5.97;;;;;;;-8.64;96.80;100190.59;5031805;28;20055;-62
2021/12/09 01:55:48;;;;;;;15.30;4.72;;;;;;;-8.64;96.41;100201.09;5029364;28;20122;-62
2021/12/09 01:58:13;;;;;;;15.15;4.85;;;;;;;-8.64;96.25;100200.22;5011947;28;20513;-63
2021/12/09 02:00:39;;;;;;;15.63;5.85;;;;;;;-8.63;95.89;100200.19;4979540;28;20211;-63
2021/12/09 02:03:05;;;;;;;15.23;4.45;;;;;;;-8.56;96.17;100201.00;5030027;28;20049;-62
2021/12/09 02:05:32;;;;;;;11.43;3.80;;;;;;;-8.54;96.19;100194.00;5029756;28;20124;-62
2021/12/09 02:07:58;;;;;;;11.98;4.63;;;;;;;-8.48;95.45;100201.78;5026664;28;20209;-62
2021/12/09 02:10:24;;;;;;;12.98;4.43;;;;;;;-8.45;95.12;100198.25;5048250;28;20148;-63
2021/12/09 02:12:51;;;;;;;13.70;5.05;;;;;;;-8.47;94.41;100218.38;5031821;28;20500;-63
2021/12/09 02:15:19;;;;;;;13.70;4.72;;;;;;;-8.53;94.81;100225.41;5049401;28;20067;-62
2021/12/09 02:17:45;;;;;;;16.88;5.75;;;;;;;-8.57;94.00;100217.63;5034983;28;20079;-62
2021/12/09 02:20:11;;;;;;;15.35;6.15;;;;;;;-8.64;94.33;100222.06;4995877;28;20049;-63
2021/12/09 02:22:38;;;;;;;14.20;4.78;;;;;;;-8.58;94.58;100215.88;5029822;28;20041;-63
2021/12/09 02:25:05;;;;;;;14.98;5.50;;;;;;;-8.57;93.78;100218.47;5029370;28;20440;-63
2021/12/09 02:27:31;;;;;;;15.15;6.07;;;;;;;-8.54;93.66;100218.44;5032397;28;20100;-63
2021/12/09 02:29:57;;;;;;;14.10;5.10;;;;;;;-8.52;93.58;100221.94;5033456;28;20041;-62
2021/12/09 02:32:23;;;;;;;16.38;4.93;;;;;;;-8.51;92.96;100228.91;5015705;28;20136;-63
2021/12/09 02:34:49;;;;;;;15.98;5.53;;;;;;;-8.67;93.12;100208.97;5015236;28;20063;-62
2021/12/09 02:37:15;;;;;;;16.23;4.85;;;;;;;-8.91;93.53;100175.22;4999464;28;20128;-62
2021/12/09 02:39:42;;;;;;;14.35;4.90;;;;;;;-8.61;93.48;100227.25;5015660;28;20474;-63
2021/12/09 02:42:08;;;;;;;13.40;4.00;;;;;;;-8.51;93.16;100242.00;5015653;28;20049;-65
2021/12/09 02:44:34;;;;;;;13.68;4.32;;;;;;;-8.61;92.41;100222.03;5034053;28;20049;-63
2021/12/09 02:47:00;;;;;;;15.65;5.15;;;;;;;-8.63;92.50;100228.16;5033677;28;20362;-63
2021/12/09 02:49:27;;;;;;;15.95;5.53;;;;;;;-8.61;92.24;100237.75;5016043;28;20042;-64
2021/12/09 02:51:54;;;;;;;15.25;5.15;;;;;;;-8.70;92.55;100240.47;5016025;28;20045;-65
2021/12/09 02:54:21;;;;;;;15.18;5.00;;;;;;;-8.51;92.59;100249.00;5032849;28;20088;-64
2021/12/09 02:56:53;;;;;;;13.88;4.70;;;;;;;-8.49;92.24;100239.34;5033010;28;20065;-63
2021/12/09 02:59:19;;;;;;;15.95;5.55;;;;;;;-8.50;92.45;100246.34;5032548;28;20476;-68
2021/12/09 03:02:00;;;;;;;14.68;5.00;;;;;;;-8.53;92.75;100249.00;5031450;28;20049;-64
2021/12/09 03:04:35;;;;;;;13.85;4.60;;;;;;;-8.51;92.55;100244.63;5017798;28;20094;-62
2021/12/09 03:07:01;;;;;;;12.52;4.10;;;;;;;-8.49;92.24;100247.22;5031446;28;20076;-63
2021/12/09 03:09:28;;;;;;;15.55;5.45;;;;;;;-8.40;93.16;100251.50;5032792;28;20060;-63
2021/12/09 03:11:55;;;;;;;15.57;5.40;;;;;;;-8.41;92.32;100257.59;5032535;28;20037;-62
2021/12/09 03:14:23;;;;;;;14.55;5.32;;;;;;;-8.60;91.55;100231.63;5032720;28;20060;-62
2021/12/09 03:16:49;;;;;;;17.85;5.57;;;;;;;-8.33;91.80;100268.88;5014726;28;20120;-62
2021/12/09 03:19:14;;;;;;;15.82;5.53;;;;;;;-8.45;91.56;100253.28;5031194;28;20132;-61
2021/12/09 03:21:43;;;;;;;16.17;5.68;;;;;;;-8.32;91.03;100260.97;5032354;28;20124;-62
2021/12/09 03:24:13;;;;;;;16.20;5.90;;;;;;;-8.38;90.52;100257.56;5036571;28;20051;-63
2021/12/09 03:26:47;;;;;;;12.88;4.18;;;;;;;-8.26;90.75;100268.78;5052435;28;20106;-62
2021/12/09 03:29:16;;;;;;;13.98;4.72;;;;;;;-8.32;90.98;100258.34;5034566;28;20048;-62
2021/12/09 03:31:44;;;;;;;15.98;4.95;;;;;;;-8.27;90.74;100279.25;5052197;28;20141;-62
2021/12/09 03:34:11;;;;;;;16.65;4.78;;;;;;;-8.32;90.13;100267.97;5017677;28;20053;-63
2021/12/09 03:36:37;;;;;;;16.80;4.85;;;;;;;-8.23;90.73;100270.47;5034337;28;20488;-62
2021/12/09 03:39:06;;;;;;;16.00;4.95;;;;;;;-8.21;90.69;100273.09;5033543;28;20052;-63
2021/12/09 03:41:32;;;;;;;15.48;5.90;;;;;;;-8.23;90.19;100277.47;5034485;28;20483;-62
2021/12/09 03:43:57;;;;;;;15.38;4.75;;;;;;;-8.31;90.19;100278.44;5052543;28;20560;-63
2021/12/09 03:46:24;;;;;;;12.82;4.60;;;;;;;-8.27;90.02;100279.25;5034097;28;20048;-64
2021/12/09 03:48:50;;;;;;;15.35;5.25;;;;;;;-8.36;89.91;100255.78;5052105;28;20045;-62
2021/12/09 03:51:16;;;;;;;15.10;5.43;;;;;;;-8.29;90.05;100281.91;5051752;28;20049;-62
2021/12/09 03:53:41;;;;;;;19.98;4.97;;;;;;;-8.26;89.81;100270.53;5033963;28;20466;-61
2021/12/09 03:56:07;;;;;;;17.88;5.18;;;;;;;-8.28;88.88;100288.03;5051719;28;20535;-63
2021/12/09 03:58:33;;;;;;;15.88;5.47;;;;;;;-8.45;89.73;100290.84;5033503;28;20047;-64
2021/12/09 04:00:59;;;;;;;13.63;4.50;;;;;;;-8.45;89.54;100295.22;5042769;28;20064;-62
2021/12/09 04:03:25;;;;;;;16.52;5.05;;;;;;;-8.51;89.69;100297.03;5031690;28;20215;-62
2021/12/09 04:05:51;;;;;;;19.65;6.40;;;;;;;-8.62;89.86;100293.66;5030178;28;20489;-63
2021/12/09 04:08:17;;;;;;;17.70;5.60;;;;;;;-8.67;89.41;100302.44;5031521;28;20485;-61
2021/12/09 04:10:44;;;;;;;16.38;5.93;;;;;;;-8.98;89.61;100264.31;5030233;28;20041;-61
2021/12/09 04:13:10;;;;;;;18.95;6.00;;;;;;;-8.90;89.45;100305.31;5013800;28;20128;-62
2021/12/09 04:15:36;;;;;;;17.67;6.45;;;;;;;-8.95;89.88;100309.72;5030272;28;20042;-63
2021/12/09 04:18:04;;;;;;;14.73;4.57;;;;;;;-9.18;90.10;100276.72;5013709;28;20084;-63
2021/12/09 04:20:30;;;;;;;17.98;6.43;;;;;;;-9.13;90.19;100301.13;5009838;28;20098;-62
2021/12/09 04:22:56;;;;;;;15.63;5.75;;;;;;;-9.32;90.74;100276.84;5032968;28;20041;-63
2021/12/09 04:25:24;;;;;;;15.75;4.78;;;;;;;-9.18;90.78;100313.38;5032870;28;20044;-64
2021/12/09 04:27:53;;;;;;;16.83;5.72;;;;;;;-9.31;90.83;100296.91;5049184;28;20339;-64
2021/12/09 04:30:19;;;;;;;18.00;5.57;;;;;;;-9.25;91.73;100302.09;5029044;28;20053;-64
2021/12/09 04:32:46;;;;;;;18.67;5.85;;;;;;;-9.24;91.80;100308.19;5012959;28;20045;-62
2021/12/09 04:35:12;;;;;;;17.85;5.90;;;;;;;-9.26;91.66;100299.47;5012728;28;20041;-62
2021/12/09 04:37:38;;;;;;;15.35;5.80;;;;;;;-9.42;91.96;100271.69;4996927;28;20092;-64
2021/12/09 04:40:09;;;;;;;17.73;6.00;;;;;;;-9.33;92.04;100308.25;5012761;28;20056;-62
2021/12/09 04:42:35;;;;;;;20.85;6.82;;;;;;;-9.44;92.10;100283.91;5031072;28;20517;-62
2021/12/09 04:45:01;;;;;;;18.33;6.30;;;;;;;-9.40;92.66;100289.09;5031219;28;20075;-63
2021/12/09 04:47:28;;;;;;;19.50;5.55;;;;;;;-9.43;92.65;100268.22;5031026;28;20067;-63
2021/12/09 04:49:54;;;;;;;13.55;4.35;;;;;;;-9.29;92.54;100283.78;5012521;28;20548;-63
2021/12/09 04:52:20;;;;;;;18.45;6.05;;;;;;;-9.25;92.64;100293.34;4996809;28;20111;-63
2021/12/09 04:54:45;;;;;;;18.00;6.35;;;;;;;-9.26;92.33;100299.47;4996769;28;20115;-62
2021/12/09 04:57:12;;;;;;;17.35;6.53;;;;;;;-9.30;92.83;100292.53;5042335;28;20034;-64
2021/12/09 04:59:38;;;;;;;17.23;6.53;;;;;;;-9.33;93.20;100292.56;5025402;28;20109;-62
2021/12/09 05:02:09;;;;;;;18.17;6.20;;;;;;;-9.31;93.28;100296.03;5032646;28;20087;-63
2021/12/09 05:04:35;;;;;;;;;;;;;;;-9.34;93.48;100301.28;5032231;28;20571;-64
2021/12/09 05:07:02;;;;;;;19.52;7.82;;;;;;;-9.37;93.61;100293.47;5037280;28;19917;-63
2021/12/09 05:09:29;;;;;;;17.70;6.35;;;;;;;-9.37;93.71;100283.84;5009316;28;20092;-66
2021/12/09 05:11:55;;;;;;;16.23;5.10;;;;;;;-9.33;93.67;100288.19;5028606;28;20068;-68
2021/12/09 05:14:24;;;;;;;14.00;5.63;;;;;;;-9.24;93.34;100308.19;5020675;28;20045;-76
2021/12/09 05:16:53;;;;;;;17.67;6.20;;;;;;;-9.22;93.55;100309.03;4978160;28;20041;-64
2021/12/09 05:19:20;;;;;;;18.20;6.22;;;;;;;-9.17;93.35;100320.38;5013612;28;20185;-63
2021/12/09 05:21:46;;;;;;;17.95;6.18;;;;;;;-9.17;93.55;100315.13;5012852;28;20049;-64
2021/12/09 05:24:13;;;;;;;9.05;2.42;;;;;;;-9.02;92.79;100320.25;5026317;28;20092;-65
2021/12/09 05:26:47;;;;;;;24.25;6.72;;;;;;;-9.02;92.52;100308.91;5032038;28;20496;-64
2021/12/09 05:29:15;;;;;;;22.60;6.45;;;;;;;-9.03;92.46;100312.38;5026591;28;20116;-63
2021/12/09 05:34:26;;;;;;;19.95;7.18;;;;;;;-9.01;93.24;100316.72;5030276;28;20788;-62
2021/12/09 05:36:53;;;;;;;18.77;6.05;;;;;;;-8.93;92.39;100324.53;4988126;28;20049;-65
2021/12/09 05:39:19;;;;;;;23.85;8.10;;;;;;;-8.92;92.89;100320.16;4992919;28;20051;-67
2021/12/09 05:41:45;;;;;;;22.42;6.93;;;;;;;-8.95;92.44;100322.81;5028435;28;20045;-64
2021/12/09 05:44:13;;;;;;;20.25;6.38;;;;;;;-8.94;92.57;100327.16;4990252;28;20412;-58
2021/12/09 05:46:45;;;;;;;18.02;6.18;;;;;;;-9.05;92.32;100309.78;5030575;28;20492;-65
2021/12/09 05:49:12;;;;;;;20.67;7.07;;;;;;;-9.08;92.90;100301.94;5020945;28;20578;-67
2021/12/09 05:51:39;;;;;;;14.38;5.03;;;;;;;-9.11;92.84;100291.50;4999057;28;20091;-67
2021/12/09 05:54:05;;;;;;;18.25;6.03;;;;;;;-9.01;92.02;100314.13;5008664;28;20055;-67
2021/12/09 05:56:31;;;;;;;9.27;1.73;;;;;;;-8.76;91.82;100327.00;5023441;28;20041;-65
2021/12/09 05:58:58;;;;;;;10.93;3.47;;;;;;;-8.70;92.01;100337.44;5009233;28;20044;-63
2021/12/09 06:01:24;;;;;;;16.08;5.55;;;;;;;-8.60;91.36;100328.56;5015997;28;20102;-66
2021/12/09 06:03:49;;;;;;;14.05;4.97;;;;;;;-8.57;91.49;100322.44;5015461;28;20480;-65
2021/12/09 06:06:16;;;;;;;18.02;5.07;;;;;;;-8.51;91.04;100336.38;5023025;28;20061;-66
2021/12/09 06:08:42;;;;;;;17.88;5.85;;;;;;;-8.51;91.44;100325.88;5009181;28;20048;-67
2021/12/09 06:11:10;;;;;;;22.75;6.38;;;;;;;-8.38;90.84;100344.09;5009040;28;20037;-69
2021/12/09 06:13:37;;;;;;;16.65;5.68;;;;;;;-8.53;91.45;100321.53;5012836;28;20060;-70
2021/12/09 06:16:04;;;;;;;23.27;6.57;;;;;;;-8.38;92.58;100339.72;5027519;28;20063;-69
2021/12/09 06:18:31;;;;;;;16.17;6.20;;;;;;;-8.28;91.19;100345.72;4981368;28;20064;-66
2021/12/09 06:20:57;;;;;;;15.55;5.75;;;;;;;-8.24;90.35;100342.16;5026288;28;20056;-63
2021/12/09 06:23:22;;;;;;;19.83;6.40;;;;;;;-8.13;90.92;100349.91;5034780;28;20041;-67
2021/12/09 06:25:50;;;;;;;16.83;5.75;;;;;;;-8.10;91.10;100345.50;5025939;28;20064;-71
2021/12/09 06:28:19;;;;;;;9.02;3.63;;;;;;;-7.98;89.92;100343.63;5004427;28;20497;-68
2021/12/09 06:30:46;;;;;;;17.65;4.95;;;;;;;-7.75;87.96;100323.22;4988462;28;20037;-66
2021/12/09 06:33:12;;;;;;;15.35;4.28;;;;;;;-7.49;86.95;100342.97;5021637;28;20481;-72
2021/12/09 06:35:38;;;;;;;13.10;4.75;;;;;;;-6.69;83.79;100359.28;5007974;28;20056;-71
2021/12/09 06:38:05;;;;;;;14.40;5.60;;;;;;;-6.23;80.31;100353.16;5010716;28;20119;-74
2021/12/09 06:40:31;;;;;;;16.65;3.95;;;;;;;-6.27;79.04;100340.97;5000121;28;20592;-73
2021/12/09 06:42:57;;;;;;;13.25;4.85;;;;;;;-5.36;75.89;100358.38;4998363;28;20755;-73
2021/12/09 06:45:24;;;;;;;16.90;5.10;;;;;;;-5.19;74.56;100356.25;5010372;28;20038;-73
2021/12/09 06:47:50;;;;;;;15.57;5.63;;;;;;;-4.71;72.88;100358.63;5032418;28;20060;-73
2021/12/09 06:50:18;;;;;;;17.67;5.88;;;;;;;-4.51;72.04;100366.00;5046692;28;20464;-73
2021/12/09 06:52:44;;;;;;;13.82;4.80;;;;;;;-4.07;69.62;100386.88;5043949;28;20037;-69
2021/12/09 06:55:13;;;;;;;25.80;5.68;;;;;;;-3.26;68.17;100380.13;5010663;28;20060;-66
2021/12/09 06:57:42;;;;;;;17.83;4.88;;;;;;;-4.30;68.47;100348.75;5000611;28;20457;-66
2021/12/09 07:00:11;;;;;;;16.35;6.32;;;;;;;-3.93;68.10;100380.31;5021622;28;20052;-69
2021/12/09 07:02:37;;;;;;;14.20;4.57;;;;;;;-4.02;67.61;100354.19;5032737;28;20051;-66
2021/12/09 07:05:05;;;;;;;14.13;4.93;;;;;;;-3.96;67.47;100390.09;5007676;28;20025;-68
2021/12/09 07:07:31;;;;;;;16.30;4.90;;;;;;;-2.72;65.72;100400.50;5007379;28;20064;-68
2021/12/09 07:09:57;;;;;;;12.73;4.68;;;;;;;-2.00;63.59;100405.19;5015290;28;20048;-66
2021/12/09 07:12:23;;;;;;;16.25;5.68;;;;;;;-1.66;61.95;100417.22;4992332;28;20404;-68
2021/12/09 07:14:49;;;;;;;14.55;4.68;;;;;;;-0.99;60.38;100394.34;4996518;28;20115;-64
2021/12/09 07:17:16;;;;;;;11.90;4.03;;;;;;;-1.08;57.81;100381.44;5028001;28;20061;-66
2021/12/09 07:19:42;;;;;;;11.57;4.32;;;;;;;-0.63;56.87;100395.56;5010951;28;20097;-67
2021/12/09 07:22:08;;;;;;;15.35;5.00;;;;;;;-1.36;56.66;100392.22;5039511;28;20136;-65
2021/12/09 07:24:34;;;;;;;12.50;3.55;;;;;;;-0.86;55.99;100400.03;5027898;28;20068;-63
2021/12/09 07:27:00;;;;;;;11.70;3.90;;;;;;;0.04;54.00;100390.13;5016516;28;20090;-68
2021/12/09 07:29:27;;;;;;;11.65;4.85;;;;;;;0.47;53.35;100414.78;5022363;28;20033;-67
2021/12/09 07:31:53;;;;;;;14.63;4.75;;;;;;;1.20;51.84;100411.38;5023053;28;20036;-65
2021/12/09 07:34:19;;;;;;;14.80;5.30;;;;;;;2.09;48.71;100411.47;5035493;28;20037;-64
2021/12/09 07:36:45;;;;;;;12.48;4.63;;;;;;;2.33;48.38;100398.66;5026940;28;20387;-64
2021/12/09 07:39:10;;;;;;;14.27;4.55;;;;;;;2.71;47.04;100377.09;4995712;28;20041;-65
2021/12/09 07:41:36;;;;;;;18.00;6.15;;;;;;;2.82;46.88;100412.06;5026940;28;20049;-66
2021/12/09 07:44:02;;;;;;;13.63;5.75;;;;;;;3.91;45.92;100388.00;5026895;28;20436;-67
2021/12/09 07:46:29;;;;;;;14.27;5.50;;;;;;;5.00;42.93;100417.03;5008522;28;20053;-66
2021/12/09 07:48:55;;;;;;;15.98;6.22;;;;;;;4.91;43.94;100408.72;5018230;28;20049;-67
2021/12/09 07:51:21;;;;;;;14.88;6.95;;;;;;;5.70;42.52;100410.75;5025317;28;20081;-69
2021/12/09 07:53:47;;;;;;;16.55;6.57;;;;;;;4.41;43.20;100410.88;5006521;28;20155;-71
2021/12/09 07:56:13;;;;;;;14.75;5.97;;;;;;;3.86;43.42;100411.50;4974661;28;20056;-73
2021/12/09 07:58:39;;;;;;;21.55;6.40;;;;;;;5.29;41.62;100414.31;5002690;28;20041;-69
2021/12/09 08:01:05;;;;;;;18.35;5.80;;;;;;;5.16;42.09;100421.44;5005437;28;20489;-70
2021/12/09 08:03:31;;;;;;;13.23;6.15;;;;;;;4.45;42.63;100425.81;4993946;28;20049;-71
2021/12/09 08:05:57;;;;;;;13.00;5.65;;;;;;;5.02;41.80;100425.84;5010153;28;20056;-73
2021/12/09 08:08:23;;;;;;;17.15;5.93;;;;;;;5.02;40.90;100425.84;5027284;28;20048;-70
2021/12/09 08:10:49;;;;;;;17.02;6.22;;;;;;;4.97;40.81;100406.53;4994373;28;20065;-67
2021/12/09 08:13:14;;;;;;;16.42;5.85;;;;;;;4.41;42.04;100423.41;5036080;28;20084;-68
2021/12/09 08:15:45;;;;;;;16.60;6.00;;;;;;;4.75;40.86;100428.44;5006297;28;20048;-68
2021/12/09 08:20:49;;;;;;;19.30;6.82;;;;;;;4.55;43.24;100432.31;5001714;28;20045;-68
2021/12/09 08:23:14;;;;;;;15.68;6.03;;;;;;;4.55;41.68;100429.66;5025382;28;20115;-68
2021/12/09 08:25:41;;;;;;;14.82;6.57;;;;;;;5.82;42.79;100436.78;5039456;28;20053;-68
2021/12/09 08:28:07;;;;;;;14.75;6.05;;;;;;;4.93;40.73;100431.75;5036208;28;20504;-70
2021/12/09 08:30:33;;;;;;;15.43;5.88;;;;;;;5.85;39.81;100441.94;5026925;28;20098;-68
2021/12/09 08:32:59;;;;;;;15.90;6.25;;;;;;;5.22;41.62;100395.06;5026868;28;20091;-70
2021/12/09 08:35:25;;;;;;;14.35;6.95;;;;;;;5.75;41.37;100414.00;5023629;28;20041;-69
2021/12/09 08:37:54;;;;;;;13.63;5.13;;;;;;;5.78;39.62;100414.66;5009781;28;20467;-69
2021/12/09 08:40:20;;;;;;;16.70;5.45;;;;;;;6.15;39.62;100427.47;4995424;28;20092;-70
2021/12/09 08:42:49;;;;;;;15.02;6.60;;;;;;;6.76;38.61;100426.78;5010381;28;20061;-69
2021/12/09 08:45:16;;;;;;;16.05;5.40;;;;;;;6.49;38.31;100432.22;5025939;28;20136;-72
2021/12/09 08:47:42;;;;;;;13.45;5.28;;;;;;;5.84;38.10;100429.47;5014302;28;20087;-76
2021/12/09 08:50:12;;;;;;;14.60;6.82;;;;;;;5.90;38.03;100433.59;5030272;23;20518;-75
2021/12/09 08:52:38;;;;;;;14.05;6.40;;;;;;;6.37;36.75;100435.78;4962713;28;20482;-70
2021/12/09 08:55:05;;;;;;;12.73;6.43;;;;;;;6.70;36.95;100437.09;4976317;28;20112;-74
2021/12/09 08:57:34;;;;;;;20.20;6.75;;;;;;;7.04;36.52;100421.25;4976908;28;20042;-65
2021/12/09 09:00:00;;;;;;;13.88;5.88;;;;;;;6.97;35.87;100410.94;4977257;28;20047;-75
2021/12/09 09:02:26;;;;;;;12.52;5.07;;;;;;;6.18;36.81;100422.75;4944132;28;20433;-70
2021/12/09 09:04:53;;;;;;;15.73;6.70;;;;;;;6.92;37.72;100421.16;4939522;28;20038;-73
2021/12/09 09:07:19;;;;;;;14.07;6.03;;;;;;;4.62;39.87;100416.75;4940555;28;20054;-67
2021/12/09 09:09:45;;;;;;;13.52;6.25;;;;;;;5.04;38.25;100389.06;4957674;28;20050;-71
2021/12/09 09:12:14;;;;;;;12.68;5.38;;;;;;;3.61;40.66;100402.22;4959427;28;20073;-67
2021/12/09 09:14:41;;;;;;;15.10;6.10;;;;;;;5.21;39.83;100420.16;4943952;28;20050;-68
2021/12/09 09:17:07;;;;;;;20.58;6.75;;;;;;;3.51;41.27;100414.44;4972737;28;20411;-68
2021/12/09 09:19:33;;;;;;;14.80;5.55;;;;;;;2.57;44.59;100417.84;4972393;28;20129;-69
2021/12/09 09:21:59;;;;;;;15.30;5.82;;;;;;;3.74;41.75;100413.09;4953923;28;20527;-69
2021/12/09 09:24:25;;;;;;;16.65;5.78;;;;;;;2.31;46.03;100421.91;4972735;28;20087;-69
2021/12/09 09:26:51;;;;;;;16.50;5.82;;;;;;;2.11;44.72;100426.44;4976166;28;20494;-68
2021/12/09 09:29:17;;;;;;;18.33;6.40;;;;;;;2.56;44.90;100409.00;4972541;28;20054;-68
2021/12/09 09:31:43;;;;;;;16.08;6.80;;;;;;;2.88;44.25;100422.38;4977248;28;20042;-73
2021/12/09 09:34:11;;;;;;;15.18;6.22;;;;;;;3.52;41.62;100402.78;4952757;28;20070;-66
2021/12/09 09:36:39;;;;;;;14.15;5.97;;;;;;;3.45;42.82;100414.75;4953202;28;20138;-65
2021/12/09 09:39:17;;;;;;;13.50;5.78;;;;;;;2.27;43.94;100447.00;4970868;28;20087;-64
2021/12/09 09:42:18;;;;;;;23.35;5.30;;;;;;;0.82;45.78;100441.63;4957198;28;20049;-66
2021/12/09 09:44:55;;;;;;;16.95;5.90;;;;;;;-0.22;48.86;100446.13;4953753;28;20046;-58
2021/12/09 09:47:23;;;;;;;14.63;5.55;;;;;;;0.28;48.26;100451.13;4974417;28;20038;-67
2021/12/09 09:49:49;;;;;;;14.70;4.13;;;;;;;-0.55;47.76;100443.91;4958726;28;20046;-70
2021/12/09 09:52:15;;;;;;;16.15;5.47;;;;;;;1.06;44.21;100443.16;4973771;28;20101;-68
2021/12/09 09:54:42;;;;;;;13.32;4.95;;;;;;;1.88;42.83;100442.75;4951046;28;20150;-70
2021/12/09 09:57:09;;;;;;;20.25;7.32;;;;;;;3.66;39.95;100452.78;4959740;28;20089;-67
2021/12/09 09:59:36;;;;;;;13.73;5.85;;;;;;;4.07;37.63;100426.31;4972050;28;20050;-68
2021/12/09 10:02:03;;;;;;;14.05;6.53;;;;;;;6.17;36.51;100452.38;4955166;28;20070;-65
2021/12/09 10:04:36;;;;;;;16.17;6.00;;;;;;;5.70;35.81;100442.94;4959844;28;20490;-66
2021/12/09 10:07:04;;;;;;;16.63;5.40;;;;;;;5.37;37.00;100440.63;4960940;28;20106;-67
2021/12/09 10:09:31;;;;;;;14.32;5.88;;;;;;;5.47;35.12;100437.25;4971189;28;20097;-68
2021/12/09 10:11:57;;;;;;;20.38;6.78;;;;;;;6.14;35.84;100449.88;4958138;28;20118;-67
2021/12/09 10:14:26;;;;;;;13.68;6.88;;;;;;;6.13;34.46;100427.56;4970045;28;20594;-67
2021/12/09 10:17:14;;;;;;;19.23;7.18;;;;;;;6.51;33.62;100430.31;4973147;28;20054;-68
2021/12/09 10:19:47;;;;;;;15.10;6.72;;;;;;;6.78;33.54;100431.19;4973478;28;20054;-67
2021/12/09 10:22:17;;;;;;;17.23;6.95;;;;;;;6.39;33.77;100425.75;4974439;28;20050;-66
2021/12/09 10:24:45;;;;;;;16.88;6.80;;;;;;;6.43;34.03;100416.53;4975334;28;20497;-67
2021/12/09 10:27:28;;;;;;;13.55;6.65;;;;;;;5.49;35.21;100421.94;4959078;28;20106;-67
2021/12/09 10:29:58;;;;;;;17.27;7.35;;;;;;;6.20;34.65;100410.06;4977958;28;20594;-66
2021/12/09 10:32:29;;;;;;;17.90;7.47;;;;;;;6.96;33.09;100414.59;4970777;28;20106;-69
2021/12/09 10:34:56;;;;;;;16.15;6.45;;;;;;;6.31;33.58;100432.63;4957045;28;20133;-65
2021/12/09 10:37:28;;;;;;;14.75;6.93;;;;;;;6.95;32.74;100410.22;4956978;28;20058;-67
2021/12/09 10:40:14;;;;;;;15.95;6.80;;;;;;;5.83;34.10;100438.50;4940781;28;20058;-67
2021/12/09 10:42:39;;;;;;;16.15;7.22;;;;;;;6.34;33.44;100438.66;4961992;28;20082;-69
2021/12/09 10:45:09;;;;;;;16.27;7.28;;;;;;;6.38;32.58;100440.16;4940530;28;20451;-69
2021/12/09 10:48:00;;;;;;;14.93;5.75;;;;;;;6.31;34.00;100441.56;4943830;28;20458;-68
2021/12/09 10:50:36;;;;;;;16.45;6.95;;;;;;;5.87;32.43;100391.69;4980430;28;20043;-68
2021/12/09 10:56:06;;;;;;;18.48;6.82;;;;;;;5.65;33.61;100440.56;4948946;28;20042;-67
2021/12/09 10:58:36;;;;;;;15.52;6.13;;;;;;;5.67;33.91;100427.06;4961884;28;20042;-68
2021/12/09 11:01:01;;;;;;;;;;;;;;;4.64;34.69;100451.47;4962800;28;20112;-67
2021/12/09 11:03:33;;;;;;;12.63;5.40;;;;;;;4.57;34.65;100446.50;4935065;28;20332;-70
2021/12/09 11:06:03;;;;;;;15.40;6.75;;;;;;;4.86;35.98;100462.56;4945333;28;20097;-67
2021/12/09 11:08:47;;;;;;;16.08;6.53;;;;;;;4.13;35.54;100459.84;4961640;28;20109;-73
2021/12/09 11:11:15;;;;;;;17.88;6.85;;;;;;;4.31;35.81;100472.16;4957981;28;20043;-66
2021/12/09 11:13:59;;;;;;;16.85;7.20;;;;;;;4.06;36.75;100464.72;4978429;28;20049;-65
2021/12/09 11:16:33;;;;;;;17.38;6.90;;;;;;;3.82;36.59;100471.47;4959445;28;20054;-66
2021/12/09 11:19:12;;;;;;;13.35;6.65;;;;;;;4.43;35.02;100480.41;4981150;28;20106;-72
2021/12/09 11:21:45;;;;;;;14.27;5.97;;;;;;;3.60;37.05;100478.03;4949708;28;20057;-65
2021/12/09 11:24:17;;;;;;;15.68;5.75;;;;;;;3.43;37.57;100466.56;4944729;28;20456;-69
2021/12/09 11:29:27;;;;;;;16.27;6.53;;;;;;;4.22;36.04;100471.84;4933995;28;20073;-65
2021/12/09 11:32:33;;;;;;;14.57;6.03;;;;;;;4.56;35.53;100474.22;4965989;28;20526;-65
2021/12/09 11:35:00;;;;;;;15.43;6.63;;;;;;;4.78;35.32;100475.59;4964962;28;20398;-64
2021/12/09 11:37:40;;;;;;;17.65;6.78;;;;;;;4.67;34.65;100488.78;4951718;28;20613;-64